Time;durP1;ratioP1;P1;durP2;ratioP2;P2;SDS_P1;SDS_P2;PMS_P1;PMS_P2;Temp;Humidity;BMP_temperature;BMP_pressure;BME280_temperature;BME280_humidity;BME280_pressure;Samples;Min_cycle;Max_cycle;Signal;HPM_P1;HPM_P2
2021/12/13 00:01:04;;;;;;;72.75;18.60;;;;;;;;;;5062616;28;20124;-63
2021/12/13 00:03:34;;;;;;;99.78;20.15;;;;;;;;;;5056296;28;20132;-63
2021/12/13 00:06:06;;;;;;;83.82;19.38;;;;;;;;;;5060028;28;20099;-63
2021/12/13 00:08:33;;;;;;;88.65;19.90;;;;;;;;;;5057736;28;20183;-63
2021/12/13 00:11:00;;;;;;;;;;;;;;;;;;5060524;28;20076;-63
2021/12/13 00:13:29;;;;;;;58.72;16.23;;;;;;;;;;5056351;28;19972;-63
2021/12/13 00:16:04;;;;;;;102.55;17.13;;;;;;;;;;5062977;28;20087;-64
2021/12/13 00:18:32;;;;;;;83.32;18.30;;;;;;;;;;5059095;28;20112;-63
2021/12/13 00:21:07;;;;;;;87.32;20.15;;;;;;;;;;5062062;28;20168;-63
2021/12/13 00:23:46;;;;;;;70.40;20.42;;;;;;;;;;5059220;28;20088;-63
2021/12/13 00:26:20;;;;;;;72.05;20.02;;;;;;;;;;5059719;28;20041;-63
2021/12/13 00:28:53;;;;;;;70.43;19.67;;;;;;;;;;5058721;28;20579;-63
2021/12/13 00:31:25;;;;;;;60.78;18.85;;;;;;;;;;5063213;28;20044;-63
2021/12/13 00:34:06;;;;;;;75.15;20.83;;;;;;;;;;5056193;28;20058;-64
2021/12/13 00:36:35;;;;;;;66.88;20.25;;;;;;;;;;5034254;28;20077;-63
2021/12/13 00:39:17;;;;;;;66.18;19.25;;;;;;;;;;5038665;28;20087;-63
2021/12/13 00:41:45;;;;;;;54.60;17.38;;;;;;;;;;5041244;28;20149;-64
2021/12/13 00:44:32;;;;;;;63.08;19.25;;;;;;;;;;5038960;28;20084;-63
2021/12/13 00:47:03;;;;;;;60.25;19.00;;;;;;;;;;5045261;28;20087;-63
2021/12/13 00:49:31;;;;;;;61.03;18.30;;;;;;;;;;5042560;28;20088;-63
2021/12/13 00:51:57;;;;;;;;;;;;;;;;;;5040695;28;20084;-64
2021/12/13 00:54:27;;;;;;;48.90;17.50;;;;;;;;;;5041547;28;20357;-63
2021/12/13 00:57:10;;;;;;;58.90;17.73;;;;;;;;;;5042668;28;20128;-63
2021/12/13 00:59:41;;;;;;;46.63;15.20;;;;;;;;;;5044997;28;20084;-63
2021/12/13 01:02:12;;;;;;;41.78;14.80;;;;;;;;;;5039514;28;20359;-63
2021/12/13 01:04:57;;;;;;;51.53;17.23;;;;;;;;;;5035397;28;20540;-63
2021/12/13 01:07:32;;;;;;;53.13;16.70;;;;;;;;;;5040945;28;20516;-63
2021/12/13 01:10:18;;;;;;;55.47;16.83;;;;;;;;;;5045414;28;20141;-63
2021/12/13 01:12:47;;;;;;;53.40;17.20;;;;;;;;;;5038446;28;20045;-63
2021/12/13 01:15:25;;;;;;;58.60;17.70;;;;;;;;;;5045271;28;20084;-63
2021/12/13 01:18:19;;;;;;;51.65;17.45;;;;;;;;;;5044717;28;20088;-63
2021/12/13 01:23:51;;;;;;;49.35;16.50;;;;;;;;;;5024483;28;20077;-63
2021/12/13 01:26:38;;;;;;;52.78;17.58;;;;;;;;;;5043458;28;20076;-63
2021/12/13 01:29:10;;;;;;;49.08;17.20;;;;;;;;;;5042240;28;20500;-63
2021/12/13 01:31:40;;;;;;;48.33;15.30;;;;;;;;;;5041776;28;20095;-63
2021/12/13 01:34:07;;;;;;;55.78;17.65;;;;;;;;;;5047216;28;20052;-63
2021/12/13 01:36:42;;;;;;;51.30;17.27;;;;;;;;;;5062206;28;20520;-63
2021/12/13 01:39:11;;;;;;;52.00;17.58;;;;;;;;;;5051339;28;20731;-63
2021/12/13 01:41:40;;;;;;;55.83;19.48;;;;;;;;;;5058376;28;20127;-63
2021/12/13 01:44:11;;;;;;;54.60;17.75;;;;;;;;;;5061034;28;20131;-63
2021/12/13 01:46:45;;;;;;;50.97;17.10;;;;;;;;;;5061584;28;20508;-63
2021/12/13 01:49:12;;;;;;;53.58;17.27;;;;;;;;;;5057731;28;20049;-63
2021/12/13 01:51:39;;;;;;;49.85;17.23;;;;;;;;;;5059277;28;20136;-63
2021/12/13 01:54:14;;;;;;;52.28;17.20;;;;;;;;;;5059155;28;20080;-63
2021/12/13 01:57:10;;;;;;;45.60;16.38;;;;;;;;;;5060698;28;20140;-63
2021/12/13 02:02:50;;;;;;;52.17;17.23;;;;;;;;;;5056856;28;20084;-63
2021/12/13 02:05:17;;;;;;;58.67;17.95;;;;;;;;;;4967455;28;20101;-63
2021/12/13 02:07:49;;;;;;;60.65;18.30;;;;;;;;;;5040416;28;20041;-63
2021/12/13 02:10:21;;;;;;;52.50;18.08;;;;;;;;;;5060825;28;20049;-63
2021/12/13 02:12:55;;;;;;;51.05;18.15;;;;;;;;;;5058929;28;20136;-63
2021/12/13 02:18:10;;;;;;;57.00;16.85;;;;;;;;;;5058043;28;20088;-63
2021/12/13 02:20:39;;;;;;;49.60;16.50;;;;;;;;;;5062747;28;20082;-63
2021/12/13 02:23:05;;;;;;;56.25;18.27;;;;;;;;;;5063279;28;20143;-63
2021/12/13 02:25:41;;;;;;;47.00;17.27;;;;;;;;;;5065871;28;20389;-63
2021/12/13 02:28:09;;;;;;;70.40;18.17;;;;;;;;;;5056161;28;20639;-63
2021/12/13 02:30:36;;;;;;;64.63;19.17;;;;;;;;;;5061771;28;20079;-63
2021/12/13 02:33:06;;;;;;;51.88;18.65;;;;;;;;;;5059861;28;20053;-63
2021/12/13 02:35:34;;;;;;;58.08;18.00;;;;;;;;;;5058208;28;20091;-63
2021/12/13 02:38:02;;;;;;;47.30;16.80;;;;;;;;;;5058785;28;20136;-63
2021/12/13 02:40:29;;;;;;;49.92;17.27;;;;;;;;;;5053176;28;20830;-63
2021/12/13 02:42:55;;;;;;;53.67;17.65;;;;;;;;;;5056118;28;20613;-63
2021/12/13 02:45:31;;;;;;;58.30;19.15;;;;;;;;;;5064866;28;20534;-63
2021/12/13 02:48:07;;;;;;;67.88;18.98;;;;;;;;;;5060046;28;20098;-63
2021/12/13 02:50:43;;;;;;;64.88;19.52;;;;;;;;;;5059598;28;20076;-63
2021/12/13 02:53:21;;;;;;;63.17;18.45;;;;;;;;;;5061672;28;20132;-63
2021/12/13 02:55:48;;;;;;;57.28;18.42;;;;;;;;;;5059663;28;20120;-63
2021/12/13 02:58:16;;;;;;;52.80;16.48;;;;;;;;;;5058640;28;20080;-63
2021/12/13 03:00:46;;;;;;;69.80;17.95;;;;;;;;;;5059540;28;20109;-63
2021/12/13 03:03:15;;;;;;;49.15;17.23;;;;;;;;;;5060044;28;20074;-63
2021/12/13 03:05:44;;;;;;;46.90;16.17;;;;;;;;;;5057513;28;20088;-63
2021/12/13 03:08:15;;;;;;;51.38;17.98;;;;;;;;;;5063157;28;20131;-63
2021/12/13 03:10:47;;;;;;;61.20;16.67;;;;;;;;;;5050396;28;20132;-63
2021/12/13 03:13:15;;;;;;;61.40;17.40;;;;;;;;;;5056704;28;20084;-63
2021/12/13 03:15:43;;;;;;;243.23;20.63;;;;;;;;;;5048396;28;20120;-63
2021/12/13 03:18:12;;;;;;;185.90;18.88;;;;;;;;;;5052506;28;20059;-63
2021/12/13 03:20:49;;;;;;;192.55;20.42;;;;;;;;;;5054178;28;20556;-63
2021/12/13 03:23:34;;;;;;;153.23;19.67;;;;;;;;;;5056977;28;20131;-63
2021/12/13 03:26:10;;;;;;;78.07;16.58;;;;;;;;;;5061409;28;20816;-63
2021/12/13 03:28:57;;;;;;;84.47;18.45;;;;;;;;;;5057420;28;20134;-63
2021/12/13 03:31:39;;;;;;;101.63;19.77;;;;;;;;;;5050871;28;20435;-63
2021/12/13 03:34:15;;;;;;;308.67;24.17;;;;;;;;;;5057708;28;20647;-64
2021/12/13 03:37:09;;;;;;;632.10;35.55;;;;;;;;;;5054204;28;20052;-63
2021/12/13 03:39:53;;;;;;;427.83;26.23;;;;;;;;;;5058008;28;20090;-63
2021/12/13 03:42:23;;;;;;;339.23;23.60;;;;;;;;;;5059634;28;20508;-63
2021/12/13 03:44:51;;;;;;;111.50;19.65;;;;;;;;;;5056161;28;20132;-63
2021/12/13 03:47:19;;;;;;;80.10;17.35;;;;;;;;;;5060577;28;20136;-63
2021/12/13 03:49:51;;;;;;;98.85;20.35;;;;;;;;;;5056989;28;20086;-63
2021/12/13 03:52:20;;;;;;;77.35;16.42;;;;;;;;;;5059091;28;20147;-63
2021/12/13 03:54:47;;;;;;;172.38;20.33;;;;;;;;;;5058994;28;20131;-64
2021/12/13 03:57:15;;;;;;;76.05;16.38;;;;;;;;;;5051350;28;20053;-63
2021/12/13 03:59:41;;;;;;;;;;;;;;;;;;5055457;28;20496;-63
2021/12/13 04:02:30;;;;;;;57.08;15.55;;;;;;;;;;5060087;28;20375;-63
2021/12/13 04:04:59;;;;;;;55.22;16.60;;;;;;;;;;5056740;28;20120;-63
2021/12/13 04:07:32;;;;;;;47.10;16.38;;;;;;;;;;5053758;28;20096;-63
2021/12/13 04:10:01;;;;;;;62.85;17.30;;;;;;;;;;5059609;28;20084;-63
2021/12/13 04:12:34;;;;;;;75.85;17.38;;;;;;;;;;5054771;28;20052;-64
2021/12/13 04:15:12;;;;;;;58.80;15.93;;;;;;;;;;5066761;28;20131;-63
2021/12/13 04:17:46;;;;;;;51.83;16.40;;;;;;;;;;5061128;28;20045;-63
2021/12/13 04:20:15;;;;;;;46.95;14.45;;;;;;;;;;5066148;28;20055;-63
2021/12/13 04:22:46;;;;;;;37.50;14.57;;;;;;;;;;5062043;28;20079;-63
2021/12/13 04:25:15;;;;;;;61.50;18.42;;;;;;;;;;5059015;28;20079;-63
2021/12/13 04:27:57;;;;;;;57.00;17.65;;;;;;;;;;5063401;28;20079;-63
2021/12/13 04:30:29;;;;;;;49.25;15.35;;;;;;;;;;5068366;28;20128;-63
2021/12/13 04:33:19;;;;;;;53.28;15.35;;;;;;;;;;5061271;28;20045;-63
2021/12/13 04:35:49;;;;;;;38.97;14.45;;;;;;;;;;5071567;28;20139;-63
2021/12/13 04:38:21;;;;;;;44.75;15.07;;;;;;;;;;5086237;28;20231;-63
2021/12/13 04:40:50;;;;;;;49.15;15.98;;;;;;;;;;5088309;28;20082;-63
2021/12/13 04:43:18;;;;;;;45.08;16.30;;;;;;;;;;5084303;28;20127;-63
2021/12/13 04:45:52;;;;;;;50.95;15.77;;;;;;;;;;5082510;28;20043;-63
2021/12/13 04:48:28;;;;;;;42.20;14.60;;;;;;;;;;5086442;28;20087;-63
2021/12/13 04:50:55;;;;;;;34.42;13.50;;;;;;;;;;5086178;28;20130;-63
2021/12/13 04:53:26;;;;;;;45.30;15.68;;;;;;;;;;5081870;28;20400;-63
2021/12/13 04:56:01;;;;;;;54.90;15.48;;;;;;;;;;5083603;28;20499;-63
2021/12/13 04:58:28;;;;;;;63.53;17.88;;;;;;;;;;5079799;28;20419;-64
2021/12/13 05:00:56;;;;;;;82.35;19.80;;;;;;;;;;5085695;28;20083;-64
2021/12/13 05:03:31;;;;;;;74.40;18.10;;;;;;;;;;5083308;28;20052;-63
2021/12/13 05:05:58;;;;;;;50.47;15.57;;;;;;;;;;5080781;28;20044;-63
2021/12/13 05:08:26;;;;;;;83.38;16.92;;;;;;;;;;5080927;28;20105;-63
2021/12/13 05:10:52;;;;;;;82.78;17.95;;;;;;;;;;5080656;28;20167;-63
2021/12/13 05:13:19;;;;;;;110.82;18.38;;;;;;;;;;5078684;28;20126;-64
2021/12/13 05:15:53;;;;;;;83.80;19.95;;;;;;;;;;5080727;28;20127;-63
2021/12/13 05:18:29;;;;;;;67.07;17.60;;;;;;;;;;5083677;28;20860;-63
2021/12/13 05:21:04;;;;;;;148.60;20.27;;;;;;;;;;5078451;28;20070;-63
2021/12/13 05:23:39;;;;;;;127.93;19.08;;;;;;;;;;5081332;28;20496;-63
2021/12/13 05:26:08;;;;;;;89.97;17.52;;;;;;;;;;5082143;28;20138;-63
2021/12/13 05:28:45;;;;;;;104.43;18.42;;;;;;;;;;5083202;28;20462;-63
2021/12/13 05:31:20;;;;;;;87.38;16.05;;;;;;;;;;5085916;28;20491;-63
2021/12/13 05:33:49;;;;;;;108.47;16.55;;;;;;;;;;5076956;28;20070;-63
2021/12/13 05:36:18;;;;;;;182.02;18.90;;;;;;;;;;5064006;28;20119;-63
2021/12/13 05:38:46;;;;;;;112.40;15.95;;;;;;;;;;5053132;28;20055;-63
2021/12/13 05:41:18;;;;;;;139.65;18.40;;;;;;;;;;5060378;28;20400;-63
2021/12/13 05:43:48;;;;;;;82.15;14.27;;;;;;;;;;5061398;28;20137;-63
2021/12/13 05:46:17;;;;;;;141.88;19.58;;;;;;;;;;5056184;28;20083;-63
2021/12/13 05:48:49;;;;;;;419.33;26.10;;;;;;;;;;5059918;28;20140;-63
2021/12/13 05:51:19;;;;;;;257.17;21.02;;;;;;;;;;5060217;28;20124;-63
2021/12/13 05:53:47;;;;;;;322.33;23.42;;;;;;;;;;5052980;28;20580;-63
2021/12/13 05:56:15;;;;;;;452.02;26.63;;;;;;;;;;5054816;28;20139;-63
2021/12/13 05:58:42;;;;;;;228.93;20.20;;;;;;;;;;5059256;28;20084;-63
2021/12/13 06:01:15;;;;;;;396.90;22.67;;;;;;;;;;5060609;28;20048;-63
2021/12/13 06:03:44;;;;;;;270.02;20.83;;;;;;;;;;5062506;28;20127;-63
2021/12/13 06:06:20;;;;;;;129.75;16.23;;;;;;;;;;5063266;28;20083;-63
2021/12/13 06:08:49;;;;;;;362.98;22.50;;;;;;;;;;5062229;28;20127;-63
2021/12/13 06:11:33;;;;;;;450.83;26.55;;;;;;;;;;5061194;28;20133;-63
2021/12/13 06:14:15;;;;;;;348.40;22.20;;;;;;;;;;5066478;28;20135;-63
2021/12/13 06:16:41;;;;;;;349.67;21.80;;;;;;;;;;5058889;28;20173;-63
2021/12/13 06:19:23;;;;;;;142.85;14.90;;;;;;;;;;5058274;28;20136;-63
2021/12/13 06:21:49;;;;;;;204.80;18.73;;;;;;;;;;5058081;28;20069;-63
2021/12/13 06:24:30;;;;;;;143.38;16.75;;;;;;;;;;5040228;28;20066;-64
2021/12/13 06:27:17;;;;;;;120.88;15.70;;;;;;;;;;5056453;28;20123;-63
2021/12/13 06:29:44;;;;;;;143.80;15.70;;;;;;;;;;5056234;28;20139;-64
2021/12/13 06:32:28;;;;;;;144.65;16.65;;;;;;;;;;5044612;28;20847;-64
2021/12/13 06:34:55;;;;;;;210.35;19.02;;;;;;;;;;5058298;28;22123;-64
2021/12/13 06:37:26;;;;;;;138.48;15.80;;;;;;;;;;5056221;28;20040;-63
2021/12/13 06:40:13;;;;;;;133.52;16.45;;;;;;;;;;5057336;28;20135;-63
2021/12/13 06:42:40;;;;;;;198.32;16.58;;;;;;;;;;5057824;28;20132;-63
2021/12/13 06:45:20;;;;;;;181.77;19.13;;;;;;;;;;5058266;28;20135;-63
2021/12/13 06:47:48;;;;;;;271.67;19.75;;;;;;;;;;5062716;28;20076;-63
2021/12/13 06:50:20;;;;;;;312.02;21.50;;;;;;;;;;5080569;28;20163;-63
2021/12/13 06:52:47;;;;;;;481.80;26.80;;;;;;;;;;5085404;28;20080;-63
2021/12/13 06:55:20;;;;;;;128.38;17.13;;;;;;;;;;5059037;28;20127;-63
2021/12/13 06:57:54;;;;;;;139.68;16.48;;;;;;;;;;5059493;28;20087;-63
2021/12/13 07:00:21;;;;;;;210.02;18.13;;;;;;;;;;5059777;28;20055;-63
2021/12/13 07:02:50;;;;;;;72.53;12.95;;;;;;;;;;5058712;28;20123;-63
2021/12/13 07:05:34;;;;;;;121.50;15.25;;;;;;;;;;5056908;28;20045;-63
2021/12/13 07:08:01;;;;;;;205.52;18.27;;;;;;;;;;5061840;28;22332;-63
2021/12/13 07:10:31;;;;;;;103.63;16.20;;;;;;;;;;5063642;28;20124;-63
2021/12/13 07:12:59;;;;;;;117.47;17.10;;;;;;;;;;5054186;28;20964;-63
2021/12/13 07:15:37;;;;;;;91.90;16.38;;;;;;;;;;5059188;28;20080;-63
2021/12/13 07:18:06;;;;;;;64.82;15.10;;;;;;;;;;5061894;28;20056;-63
2021/12/13 07:20:41;;;;;;;93.13;17.05;;;;;;;;;;5060631;28;20563;-63
2021/12/13 07:23:08;;;;;;;119.03;16.67;;;;;;;;;;5061248;28;20055;-63
2021/12/13 07:25:36;;;;;;;76.53;15.00;;;;;;;;;;5058712;28;20515;-63
2021/12/13 07:28:04;;;;;;;84.82;16.52;;;;;;;;;;5057451;28;20104;-63
2021/12/13 07:30:30;;;;;;;88.25;16.10;;;;;;;;;;5058932;28;20129;-63
2021/12/13 07:32:58;;;;;;;;;;;;;;;;;;5057622;28;20091;-63
2021/12/13 07:35:33;;;;;;;86.68;15.00;;;;;;;;;;5060978;28;19958;-63
2021/12/13 07:38:06;;;;;;;109.07;17.83;;;;;;;;;;5059830;28;20056;-63
2021/12/13 07:40:44;;;;;;;72.03;16.75;;;;;;;;;;5061399;28;20123;-64
2021/12/13 07:43:14;;;;;;;83.10;16.67;;;;;;;;;;5078604;28;20175;-63
2021/12/13 07:45:40;;;;;;;63.53;15.65;;;;;;;;;;5076068;28;20124;-63
2021/12/13 07:48:12;;;;;;;85.72;17.10;;;;;;;;;;5076388;28;20757;-64
2021/12/13 07:50:41;;;;;;;82.80;17.25;;;;;;;;;;5075792;28;20134;-63
2021/12/13 07:53:09;;;;;;;69.55;15.75;;;;;;;;;;5076165;28;20054;-63
2021/12/13 07:55:40;;;;;;;138.07;20.55;;;;;;;;;;5076373;28;20066;-63
2021/12/13 07:58:07;;;;;;;97.38;18.25;;;;;;;;;;5076507;28;20091;-63
2021/12/13 08:00:37;;;;;;;357.15;25.35;;;;;;;;;;5077502;28;20059;-63
2021/12/13 08:03:06;;;;;;;66.45;16.40;;;;;;;;;;5076816;28;20048;-63
2021/12/13 08:05:46;;;;;;;104.20;17.90;;;;;;;;;;5076233;28;20093;-63
2021/12/13 08:08:32;;;;;;;47.67;14.07;;;;;;;;;;5076184;28;20055;-63
2021/12/13 08:11:02;;;;;;;46.50;15.05;;;;;;;;;;5054305;28;20060;-63
2021/12/13 08:13:31;;;;;;;39.15;12.95;;;;;;;;;;5056183;28;20128;-63
2021/12/13 08:16:00;;;;;;;33.22;14.25;;;;;;;;;;5058475;28;20128;-63
2021/12/13 08:18:38;;;;;;;40.60;13.23;;;;;;;;;;5056538;28;20489;-66
2021/12/13 08:21:04;;;;;;;31.45;12.88;;;;;;;;;;5059121;28;20045;-63
2021/12/13 08:23:39;;;;;;;33.00;12.18;;;;;;;;;;5059408;28;20632;-63
2021/12/13 08:26:18;;;;;;;44.47;14.27;;;;;;;;;;5057321;28;20056;-63
2021/12/13 08:28:47;;;;;;;37.33;13.68;;;;;;;;;;5055704;28;20564;-63
2021/12/13 08:31:21;;;;;;;33.75;11.88;;;;;;;;;;5055717;28;20057;-63
2021/12/13 08:33:50;;;;;;;31.52;13.05;;;;;;;;;;5055126;28;20052;-63
2021/12/13 08:36:26;;;;;;;29.35;11.05;;;;;;;;;;5054300;28;20136;-63
2021/12/13 08:39:05;;;;;;;33.53;11.75;;;;;;;;;;5054569;28;20843;-63
2021/12/13 08:41:37;;;;;;;32.22;12.82;;;;;;;;;;5056073;28;20143;-63
2021/12/13 08:44:10;;;;;;;30.50;10.48;;;;;;;;;;5054839;28;20048;-63
2021/12/13 08:46:43;;;;;;;28.33;11.60;;;;;;;;;;5056234;28;20068;-63
2021/12/13 08:49:15;;;;;;;32.65;11.93;;;;;;;;;;5053938;28;20049;-63
2021/12/13 08:51:49;;;;;;;29.95;11.00;;;;;;;;;;5054902;28;20692;-63
2021/12/13 08:54:16;;;;;;;31.30;11.70;;;;;;;;;;5043837;28;20992;-63
2021/12/13 08:56:48;;;;;;;19.95;10.15;;;;;;;;;;5055867;28;20075;-63
2021/12/13 08:59:23;;;;;;;18.40;8.85;;;;;;;;;;5057232;28;20822;-63
2021/12/13 09:01:58;;;;;;;21.45;9.55;;;;;;;;;;5059996;28;20052;-63
2021/12/13 09:04:27;;;;;;;26.83;10.43;;;;;;;;;;5059612;28;20044;-63
2021/12/13 09:06:55;;;;;;;19.50;9.43;;;;;;;;;;5060052;28;20143;-63
2021/12/13 09:09:28;;;;;;;20.75;8.32;;;;;;;;;;5058081;28;20132;-63
2021/12/13 09:12:04;;;;;;;16.95;8.68;;;;;;;;;;5067377;28;20044;-64
2021/12/13 09:14:41;;;;;;;17.55;8.45;;;;;;;;;;5063941;28;20131;-63
2021/12/13 09:17:16;;;;;;;17.10;8.32;;;;;;;;;;5067112;28;20131;-63
2021/12/13 09:19:51;;;;;;;19.27;9.18;;;;;;;;;;5056571;28;20131;-63
2021/12/13 09:22:24;;;;;;;20.42;8.93;;;;;;;;;;5059203;28;20103;-63
2021/12/13 09:24:54;;;;;;;17.90;9.20;;;;;;;;;;5059727;28;20140;-63
2021/12/13 09:27:32;;;;;;;17.00;7.78;;;;;;;;;;5058430;28;20052;-63
2021/12/13 09:30:13;;;;;;;19.95;8.10;;;;;;;;;;5059105;28;20076;-63
2021/12/13 09:32:45;;;;;;;15.73;7.28;;;;;;;;;;5058779;28;20210;-63
2021/12/13 09:35:27;;;;;;;13.73;7.75;;;;;;;;;;5058751;28;20151;-63
2021/12/13 09:37:56;;;;;;;14.10;6.63;;;;;;;;;;5064138;28;20079;-63
2021/12/13 09:40:34;;;;;;;16.27;6.85;;;;;;;;;;5055703;28;20506;-63
2021/12/13 09:43:01;;;;;;;12.65;6.10;;;;;;;;;;5062790;28;20148;-63
2021/12/13 09:45:31;;;;;;;15.70;6.97;;;;;;;;;;5064043;28;20087;-63
2021/12/13 09:47:58;;;;;;;18.52;6.60;;;;;;;;;;5057468;28;20041;-63
2021/12/13 09:50:27;;;;;;;22.27;7.50;;;;;;;;;;5057819;28;20091;-63
2021/12/13 09:52:56;;;;;;;20.20;6.20;;;;;;;;;;5059923;28;20127;-63
2021/12/13 09:55:32;;;;;;;24.30;7.03;;;;;;;;;;5060602;28;20132;-63
2021/12/13 09:58:08;;;;;;;16.55;7.13;;;;;;;;;;5060182;28;20132;-64
2021/12/13 10:00:41;;;;;;;15.63;6.25;;;;;;;;;;5060648;28;20044;-63
2021/12/13 10:03:10;;;;;;;21.02;6.95;;;;;;;;;;5083999;28;20044;-63
2021/12/13 10:05:38;;;;;;;17.95;6.57;;;;;;;;;;5083583;28;20075;-63
2021/12/13 10:08:06;;;;;;;18.25;7.07;;;;;;;;;;5082326;28;20052;-63
2021/12/13 10:10:51;;;;;;;13.48;5.68;;;;;;;;;;5063198;28;20091;-63
2021/12/13 10:13:21;;;;;;;16.42;5.47;;;;;;;;;;5061376;28;20139;-63
2021/12/13 10:15:59;;;;;;;16.10;6.03;;;;;;;;;;5062939;28;20159;-64
2021/12/13 10:18:27;;;;;;;15.35;6.00;;;;;;;;;;5058643;28;20079;-63
2021/12/13 10:20:59;;;;;;;15.43;5.80;;;;;;;;;;5057444;28;20477;-63
2021/12/13 10:23:31;;;;;;;20.35;6.63;;;;;;;;;;5063661;28;20130;-64
2021/12/13 10:26:19;;;;;;;17.98;6.05;;;;;;;;;;5057067;28;20102;-64
2021/12/13 10:28:54;;;;;;;15.68;6.35;;;;;;;;;;5055625;28;20127;-64
2021/12/13 10:31:29;;;;;;;21.20;6.90;;;;;;;;;;5060846;28;20135;-64
2021/12/13 10:33:56;;;;;;;17.08;6.50;;;;;;;;;;5059944;28;20053;-64
2021/12/13 10:36:27;;;;;;;21.50;6.18;;;;;;;;;;5060173;28;20092;-64
2021/12/13 10:38:56;;;;;;;28.88;6.95;;;;;;;;;;5057325;28;20055;-63
2021/12/13 10:41:25;;;;;;;15.15;5.63;;;;;;;;;;5057080;28;20135;-64
2021/12/13 10:43:57;;;;;;;24.60;5.90;;;;;;;;;;5055770;28;20315;-62
2021/12/13 10:46:26;;;;;;;32.03;5.88;;;;;;;;;;5056483;28;20140;-62
2021/12/13 10:48:55;;;;;;;19.55;6.07;;;;;;;;;;5054756;28;20159;-62
2021/12/13 10:51:30;;;;;;;19.17;7.13;;;;;;;;;;5057344;28;20040;-62
2021/12/13 10:53:59;;;;;;;21.38;6.82;;;;;;;;;;5054905;28;20052;-62
2021/12/13 10:56:27;;;;;;;23.92;6.32;;;;;;;;;;5056844;28;20138;-62
2021/12/13 10:58:56;;;;;;;14.32;5.43;;;;;;;;;;5056477;28;20139;-62
2021/12/13 11:01:33;;;;;;;25.77;6.15;;;;;;;;;;5055955;28;20053;-62
2021/12/13 11:04:03;;;;;;;14.77;5.50;;;;;;;;;;5049712;28;20091;-62
2021/12/13 11:06:37;;;;;;;14.07;5.53;;;;;;;;;;5081629;28;20770;-62
2021/12/13 11:09:05;;;;;;;18.45;5.57;;;;;;;;;;5081662;28;20074;-62
2021/12/13 11:11:38;;;;;;;13.07;5.60;;;;;;;;;;5084920;28;20152;-62
2021/12/13 11:14:07;;;;;;;12.88;4.78;;;;;;;;;;5080479;28;20143;-62
2021/12/13 11:16:34;;;;;;;;;;;;;;;;;;5079051;28;20147;-62
2021/12/13 11:19:02;;;;;;;9.82;4.38;;;;;;;;;;5080868;28;19924;-62
2021/12/13 11:21:37;;;;;;;7.75;4.30;;;;;;;;;;5075399;28;20476;-62
2021/12/13 11:24:08;;;;;;;10.48;4.90;;;;;;;;;;5083568;28;20132;-62
2021/12/13 11:26:36;;;;;;;7.93;4.85;;;;;;;;;;5078940;28;20051;-62
2021/12/13 11:29:04;;;;;;;7.15;3.88;;;;;;;;;;5080774;28;20080;-62
2021/12/13 11:31:31;;;;;;;9.50;4.90;;;;;;;;;;5084604;28;20127;-63
2021/12/13 11:34:04;;;;;;;8.75;4.72;;;;;;;;;;5080869;28;20452;-62
2021/12/13 11:36:51;;;;;;;11.40;4.43;;;;;;;;;;5078169;28;20084;-62
2021/12/13 11:39:49;;;;;;;9.52;4.43;;;;;;;;;;5078911;28;20080;-62
2021/12/13 11:42:31;;;;;;;11.85;4.93;;;;;;;;;;5040270;28;20136;-62
2021/12/13 11:45:16;;;;;;;9.95;4.68;;;;;;;;;;5074525;28;20095;-62
2021/12/13 11:47:46;;;;;;;;;;;;;;;;;;5078926;28;20052;-62
2021/12/13 11:50:32;;;;;;;6.72;3.85;;;;;;;;;;5078246;28;20446;-63
2021/12/13 11:53:08;;;;;;;8.25;3.88;;;;;;;;;;5077135;28;20044;-63
2021/12/13 11:55:52;;;;;;;5.93;3.67;;;;;;;;;;5079423;28;20188;-63
2021/12/13 11:58:44;;;;;;;7.38;4.10;;;;;;;;;;5081046;28;20530;-62
2021/12/13 12:01:29;;;;;;;5.97;3.70;;;;;;;;;;5079065;28;20080;-63
2021/12/13 12:04:00;;;;;;;8.55;4.00;;;;;;;;;;5080383;28;20051;-63
2021/12/13 12:06:45;;;;;;;6.28;3.97;;;;;;;;;;5079004;28;20119;-63
2021/12/13 12:09:22;;;;;;;7.68;3.63;;;;;;;;;;5078081;28;20048;-63
2021/12/13 12:11:54;;;;;;;12.02;3.92;;;;;;;;;;5079407;28;20052;-63
2021/12/13 12:14:29;;;;;;;9.90;4.05;;;;;;;;;;5080925;28;20075;-63
2021/12/13 12:16:57;;;;;;;4.68;2.90;;;;;;;;;;5078343;28;20125;-63
2021/12/13 12:19:36;;;;;;;10.35;3.90;;;;;;;;;;5078462;28;20080;-62
2021/12/13 12:22:07;;;;;;;6.78;3.20;;;;;;;;;;5077591;28;20080;-63
2021/12/13 12:24:38;;;;;;;7.38;3.55;;;;;;;;;;5075406;28;20462;-63
2021/12/13 12:27:08;;;;;;;7.63;3.30;;;;;;;;;;5080285;28;20484;-63
2021/12/13 12:29:39;;;;;;;11.85;3.90;;;;;;;;;;5078102;28;20444;-63
2021/12/13 12:32:12;;;;;;;11.88;3.42;;;;;;;;;;5079061;28;20574;-63
2021/12/13 12:34:47;;;;;;;8.13;3.67;;;;;;;;;;5079615;28;20084;-62
2021/12/13 12:37:30;;;;;;;5.78;2.97;;;;;;;;;;5062602;28;20049;-63
2021/12/13 12:39:59;;;;;;;9.18;3.45;;;;;;;;;;5057101;28;20504;-63
2021/12/13 12:42:30;;;;;;;5.88;3.00;;;;;;;;;;5059233;28;20087;-62
2021/12/13 12:44:56;;;;;;;8.50;3.13;;;;;;;;;;5063232;28;20084;-63
2021/12/13 12:47:35;;;;;;;7.78;3.88;;;;;;;;;;5062679;28;20461;-62
2021/12/13 12:50:22;;;;;;;12.15;3.42;;;;;;;;;;5060716;28;20126;-63
2021/12/13 12:52:54;;;;;;;11.85;3.30;;;;;;;;;;5057629;28;20052;-63
2021/12/13 12:55:24;;;;;;;5.47;2.90;;;;;;;;;;5061072;28;20132;-62
2021/12/13 12:57:51;;;;;;;7.07;3.38;;;;;;;;;;5062513;28;20088;-63
2021/12/13 13:00:22;;;;;;;8.70;3.65;;;;;;;;;;5064402;28;20539;-63
2021/12/13 13:02:50;;;;;;;6.75;3.35;;;;;;;;;;5060984;28;20080;-63
2021/12/13 13:05:18;;;;;;;5.53;3.28;;;;;;;;;;5063002;28;20581;-64
2021/12/13 13:07:45;;;;;;;6.28;3.08;;;;;;;;;;5069538;28;20048;-63
2021/12/13 13:10:26;;;;;;;7.10;3.70;;;;;;;;;;5057900;28;20469;-64
2021/12/13 13:12:54;;;;;;;6.93;3.70;;;;;;;;;;5064456;28;20128;-64
2021/12/13 13:15:29;;;;;;;6.00;3.17;;;;;;;;;;5055584;28;20465;-64
2021/12/13 13:18:00;;;;;;;6.43;3.28;;;;;;;;;;5061995;28;20080;-64
2021/12/13 13:20:31;;;;;;;8.85;3.20;;;;;;;;;;5061255;28;20132;-64
2021/12/13 13:22:58;;;;;;;9.13;3.42;;;;;;;;;;5055925;28;20136;-64
2021/12/13 13:25:33;;;;;;;7.18;3.22;;;;;;;;;;5062351;28;20077;-64
2021/12/13 13:28:01;;;;;;;7.07;2.90;;;;;;;;;;5069306;28;20140;-63
2021/12/13 13:30:31;;;;;;;7.95;3.15;;;;;;;;;;5058839;28;20090;-63
2021/12/13 13:32:57;;;;;;;10.70;3.67;;;;;;;;;;5060383;28;20095;-64
2021/12/13 13:35:31;;;;;;;6.75;3.45;;;;;;;;;;5059845;28;20114;-64
2021/12/13 13:38:01;;;;;;;4.68;2.63;;;;;;;;;;5057051;28;20045;-63
2021/12/13 13:40:30;;;;;;;5.45;2.90;;;;;;;;;;5061374;28;20132;-64
2021/12/13 13:43:05;;;;;;;3.88;2.78;;;;;;;;;;5059170;28;20148;-64
2021/12/13 13:45:44;;;;;;;3.63;2.35;;;;;;;;;;5065174;28;20462;-65
2021/12/13 13:48:16;;;;;;;3.95;2.03;;;;;;;;;;5055826;28;20079;-64
2021/12/13 13:50:46;;;;;;;3.70;2.17;;;;;;;;;;5064424;28;20077;-64
2021/12/13 13:53:25;;;;;;;3.05;2.28;;;;;;;;;;5061314;28;20052;-64
2021/12/13 13:56:05;;;;;;;2.88;2.05;;;;;;;;;;5062514;28;20091;-63
2021/12/13 13:58:33;;;;;;;2.53;2.00;;;;;;;;;;5079718;28;20159;-64
2021/12/13 14:01:27;;;;;;;2.80;2.15;;;;;;;;;;5081101;28;20045;-64
2021/12/13 14:03:56;;;;;;;4.13;2.17;;;;;;;;;;5078279;28;20462;-63
2021/12/13 14:06:34;;;;;;;4.47;2.35;;;;;;;;;;5081397;28;20164;-64
2021/12/13 14:09:08;;;;;;;6.72;2.95;;;;;;;;;;5082502;28;20162;-64
2021/12/13 14:11:42;;;;;;;3.95;2.50;;;;;;;;;;5061611;28;20131;-64
2021/12/13 14:14:09;;;;;;;3.50;2.38;;;;;;;;;;5082386;28;20080;-64
2021/12/13 14:16:35;;;;;;;8.77;3.05;;;;;;;;;;5079269;28;20412;-64
2021/12/13 14:19:04;;;;;;;13.73;3.80;;;;;;;;;;5083874;28;20167;-63
2021/12/13 14:21:31;;;;;;;15.88;2.90;;;;;;;;;;5080568;28;20080;-64
2021/12/13 14:23:58;;;;;;;19.67;4.35;;;;;;;;;;5080324;28;20135;-64
2021/12/13 14:26:27;;;;;;;47.15;6.07;;;;;;;;;;5074863;28;20139;-64
2021/12/13 14:29:05;;;;;;;203.70;11.73;;;;;;;;;;5080354;28;20047;-64
2021/12/13 14:31:44;;;;;;;28.20;5.30;;;;;;;;;;5081602;28;20082;-64
2021/12/13 14:34:17;;;;;;;27.02;5.07;;;;;;;;;;5082167;27;20056;-64
2021/12/13 14:36:50;;;;;;;24.95;4.28;;;;;;;;;;5057876;28;20144;-64
2021/12/13 14:39:21;;;;;;;39.70;5.95;;;;;;;;;;5060005;28;20509;-64
2021/12/13 14:41:55;;;;;;;298.58;17.17;;;;;;;;;;5057343;28;20081;-64
2021/12/13 14:44:25;;;;;;;32.42;5.82;;;;;;;;;;5061246;28;20526;-64
2021/12/13 14:46:53;;;;;;;41.55;5.43;;;;;;;;;;5062226;28;20052;-64
2021/12/13 14:49:21;;;;;;;178.85;12.32;;;;;;;;;;5061600;28;20052;-63
2021/12/13 14:51:51;;;;;;;92.63;7.07;;;;;;;;;;5057483;28;20053;-64
2021/12/13 14:54:27;;;;;;;371.13;18.20;;;;;;;;;;5066966;28;20131;-63
2021/12/13 14:57:05;;;;;;;473.77;21.80;;;;;;;;;;5078994;28;20049;-64
2021/12/13 14:59:33;;;;;;;222.43;13.20;;;;;;;;;;5083511;28;20484;-64
2021/12/13 15:02:00;;;;;;;379.42;20.23;;;;;;;;;;5084194;28;20090;-64
2021/12/13 15:04:28;;;;;;;157.45;12.00;;;;;;;;;;5074909;28;20094;-64